• Join FlightAware (Why Join?)
  • Login
  • US Flag 
01:19AM EDT


 

Airport Tracker/Info


-or-


 

Live Flight TrackerFlight Track Log ✈ SWA607 ✈ 11-May-2013 ✈ KSEA - KSMF

Flight Track Log - Related Links

Times and Time Zones

All times are in EDT time to prevent confusion due to time zone crossing. See the SWA607 flight status page for this flight to view local times or setup timezone preferences in your user account.

Time Position Orientation Groundspeed Altitude Reporting Facility
EDT Latitude Longitude Course Direction KTS MPH feet Rate Location/Type
10:43AM 47.4258 -122.3089 180° South 148 170 1,600  Level Seattle Center
10:44AM 47.3628 -122.3083 180° South 197 227 3,800 2,040 Climbing Seattle Center
10:45AM 47.2931 -122.3094 181° South 249 287 6,100 2,940 Climbing Seattle Center
10:46AM 47.2156 -122.3017 176° South 280 322 9,800 3,120 Climbing Seattle Center
10:47AM 47.1292 -122.2908 175° South 318 366 12,500 3,000 Climbing Seattle Center
10:48AM 47.0358 -122.2786 175° South 337 388 15,900 2,880 Climbing Seattle Center
10:49AM 46.9447 -122.2686 176° South 351 404 18,400 2,400 Climbing Seattle Center
10:50AM 46.8431 -122.2569 176° South 369 425 20,900 2,400 Climbing Seattle Center
10:51AM 46.7369 -122.2436 175° South 384 442 23,400 2,160 Climbing Seattle Center
10:52AM 46.6275 -122.2314 176° South 397 457 25,300 1,800 Climbing Seattle Center
10:53AM 46.5133 -122.2164 175° South 413 475 27,100 1,860 Climbing Seattle Center
10:54AM 46.3708 -122.2006 176° South 432 497 29,100 1,740 Climbing Seattle Center
10:55AM 46.2500 -122.1864 175° South 439 505 30,700 1,680 Climbing Seattle Center
10:56AM 46.1361 -122.1714 175° South 441 507 32,600 1,860 Climbing Seattle Center
10:57AM 46.0169 -122.1561 175° South 433 498 34,500 1,800 Climbing Seattle Center
10:58AM 45.9000 -122.1428 175° South 424 488 36,300 1,080 Climbing Seattle Center
10:59AM 45.7858 -122.1294 175° South 415 478 36,700 180 Climbing Seattle Center
11:00AM 45.6683 -122.1158 175° South 419 482 36,700  Level Seattle Center
11:01AM 45.5492 -122.1017 175° South 425 489 36,700  Level Seattle Center
11:02AM 45.4319 -122.0875 175° South 424 488 36,700 120 Level Seattle Center
11:03AM 45.3156 -122.0736 175° South 423 487 37,000 120 Climbing Seattle Center
11:04AM 45.1758 -122.0581 176° South 421 484 37,000  Level Seattle Center
11:05AM 45.0553 -122.0447 176° South 426 490 37,000  Level Seattle Center
11:06AM 44.9392 -122.0300 175° South 422 486 37,000  Level Seattle Center
11:07AM 44.8228 -122.0153 175° South 416 479 37,000  Level Seattle Center
11:08AM 44.7075 -122.0036 176° South 413 475 37,000  Level Seattle Center
11:09AM 44.5897 -121.9903 175° South 418 481 37,000  Level Seattle Center
11:10AM 44.4711 -121.9767 175° South 423 487 37,000  Level Seattle Center
11:11AM 44.3536 -121.9633 175° South 424 488 37,000  Level Seattle Center
11:12AM 44.2344 -121.9503 176° South 426 490 37,000  Level Seattle Center
11:13AM 44.1144 -121.9369 175° South 430 495 37,000  Level Seattle Center
11:14AM 43.9958 -121.9231 175° South 428 493 37,000  Level Seattle Center
11:16AM 43.8764 -121.9100 175° South 429 494 37,000  Level Seattle Center
11:17AM 43.7533 -121.8994 176° South 442 509 37,000  Level Seattle Center
11:18AM 43.6342 -121.8861 175° South 433 498 37,000  Level Seattle Center
11:19AM 43.5131 -121.8725 175° South 435 501 37,000  Level Seattle Center
11:20AM 43.3933 -121.8589 175° South 434 499 37,000  Level Seattle Center
11:21AM 43.2789 -121.8472 176° South 436 502 37,000  Level Seattle Center
11:22AM 43.1586 -121.8347 176° South 436 502 37,000  Level Seattle Center
11:23AM 43.0122 -121.8189 175° South 439 505 37,000  Level Seattle Center
11:24AM 42.8900 -121.8067 176° South 440 506 37,000  Level Seattle Center
11:25AM 42.7678 -121.7942 176° South 439 505 37,000  Level Seattle Center
11:26AM 42.6453 -121.7806 175° South 440 506 37,000  Level Seattle Center
11:27AM 42.5233 -121.7672 175° South 440 506 37,000  Level Seattle Center
11:28AM 42.4011 -121.7542 175° South 439 505 37,000  Level Seattle Center
11:29AM 42.2772 -121.7411 176° South 442 509 37,000  Level Seattle Center
11:30AM 42.1533 -121.7272 175° South 439 505 37,000  Level Seattle Center
11:31AM 42.0281 -121.7256 179° South 439 505 37,000  Level Seattle Center
11:32AM 41.9039 -121.7269 180° South 437 503 37,000  Level Seattle Center
11:33AM 41.7806 -121.7261 180° South 438 504 37,000  Level Seattle Center
11:34AM 41.6567 -121.7247 180° South 442 509 37,000  Level Seattle Center
11:35AM 41.5342 -121.7236 180° South 440 506 37,000  Level Seattle Center
11:36AM 41.4103 -121.7156 177° South 443 510 37,000  Level Seattle Center
11:37AM 41.2861 -121.7086 178° South 445 512 37,000  Level Seattle Center
11:38AM 41.1617 -121.7017 178° South 446 513 37,000  Level Seattle Center
11:39AM 41.0367 -121.6947 178° South 449 517 37,000  Level Seattle Center
11:39AM 40.9983 -121.6928 178° South 448 516 37,000 -720 Level Oakland Center
11:40AM 40.8739 -121.6867 178° South 446 513 36,100 -960 Descending Oakland Center
11:41AM 40.7542 -121.6797 177° South 432 497 35,100 -960 Descending Oakland Center
11:42AM 40.6331 -121.6747 178° South 433 498 34,200 -960 Descending Oakland Center
11:43AM 40.5122 -121.6686 178° South 432 497 33,200 -960 Descending Oakland Center
11:44AM 40.3903 -121.6628 178° South 435 501 32,300 -1,140 Descending Oakland Center
11:45AM 40.2681 -121.6569 178° South 437 503 30,900 -2,100 Descending Oakland Center
11:46AM 40.1450 -121.6500 178° South 439 505 28,100 -2,640 Descending Oakland Center
11:47AM 40.0256 -121.6458 178° South 429 494 25,600 -2,640 Descending Oakland Center
11:48AM 39.8892 -121.6392 178° South 409 471 22,700 -2,520 Descending Oakland Center
11:49AM 39.7806 -121.6331 178° South 393 452 20,500 -2,220 Descending Oakland Center
11:50AM 39.6753 -121.6297 179° South 381 438 18,300 -2,160 Descending Oakland Center
11:51AM 39.5750 -121.6236 177° South 365 420 16,200 -2,220 Descending Oakland Center
11:52AM 39.4733 -121.6192 178° South 353 406 13,800 -2,220 Descending Oakland Center
11:53AM 39.3789 -121.6153 178° South 341 392 11,700 -1,800 Descending Oakland Center
11:54AM 39.2906 -121.6119 178° South 324 373 10,200 -1,380 Descending Oakland Center
11:55AM 39.2133 -121.6081 178° South 284 327 9,000 -1,440 Descending Oakland Center
11:57AM 39.1167 -121.6000 176° South 266 306 7,200 -1,560 Descending Northern Cal TRACON
11:58AM 39.0500 -121.6000 180° South 264 304 5,800 -1,080 Descending Northern Cal TRACON
11:59AM 38.9833 -121.6000 180° South 241 277 5,100 -960 Descending Northern Cal TRACON
12:00PM 38.9167 -121.6000 180° South 231 266 3,900 -1,080 Descending Northern Cal TRACON
12:00PM 38.8667 -121.6000 180° South 228 262 3,100 -1,020 Descending Northern Cal TRACON
12:01PM 38.8000 -121.6000 180° South 218 251 2,000 -1,080 Descending Northern Cal TRACON
12:02PM 38.7500 -121.6000 180° South 162 186 1,000 -900 Descending Northern Cal TRACON
12:03PM 38.7167 -121.6000 180° South 129 148 400 -720 Descending Northern Cal TRACON
12:06PM 38.6954 -121.5908 180° South  Level Estimated
12:13PM 38.6954 -121.5908 180° South  Level Estimated